Time;durP1;ratioP1;P1;durP2;ratioP2;P2;SDS_P1;SDS_P2;PMS_P1;PMS_P2;Temp;Humidity;BMP_temperature;BMP_pressure;BME280_temperature;BME280_humidity;BME280_pressure;Samples;Min_cycle;Max_cycle;Signal;HPM_P1;HPM_P2
2022/10/27 00:02:18;;;;;;;1.83;0.95;;;17.90;87.50;;;;;;5092998;28;20102;-76
2022/10/27 00:04:44;;;;;;;3.17;1.15;;;17.90;87.50;;;;;;5093132;28;20031;-76
2022/10/27 00:07:09;;;;;;;1.98;0.90;;;17.90;87.50;;;;;;5092669;28;20016;-76
2022/10/27 00:09:35;;;;;;;4.50;1.00;;;17.90;87.50;;;;;;5093994;28;20028;-76
2022/10/27 00:12:01;;;;;;;2.75;1.05;;;17.90;87.50;;;;;;5093110;28;20077;-76
2022/10/27 00:14:26;;;;;;;2.20;0.98;;;17.90;87.50;;;;;;5092810;28;20036;-76
2022/10/27 00:16:53;;;;;;;2.95;1.00;;;17.90;87.60;;;;;;5092873;28;20028;-76
2022/10/27 00:19:20;;;;;;;3.45;1.02;;;17.90;87.50;;;;;;5077717;28;20031;-76
2022/10/27 00:21:46;;;;;;;4.30;1.30;;;17.90;87.60;;;;;;5058695;28;20158;-76
2022/10/27 00:24:11;;;;;;;5.68;0.90;;;17.90;87.60;;;;;;5076241;28;20110;-76
2022/10/27 00:26:37;;;;;;;4.68;1.02;;;17.90;87.60;;;;;;5093921;28;20106;-76
2022/10/27 00:29:03;;;;;;;3.97;1.55;;;17.90;87.50;;;;;;5059303;28;20020;-76
2022/10/27 00:31:28;;;;;;;3.58;0.88;;;17.90;87.40;;;;;;5059124;28;20031;-76
2022/10/27 00:33:54;;;;;;;3.17;1.08;;;17.90;87.50;;;;;;5093720;28;20032;-76
2022/10/27 00:36:21;;;;;;;4.90;0.80;;;17.90;87.50;;;;;;5092192;28;20050;-76
2022/10/27 00:38:46;;;;;;;2.38;1.05;;;17.90;87.50;;;;;;5058676;28;20024;-76
2022/10/27 00:41:32;;;;;;;4.65;1.33;;;17.90;87.50;;;;;;5075387;28;20016;-76
2022/10/27 00:43:59;;;;;;;4.93;1.48;;;17.90;87.50;;;;;;5059387;28;20047;-76
2022/10/27 00:46:43;;;;;;;5.30;1.02;;;17.90;87.50;;;;;;5058627;28;20094;-76
2022/10/27 00:49:13;;;;;;;1.50;0.80;;;17.90;87.50;;;;;;5058944;28;20165;-77
2022/10/27 00:51:49;;;;;;;4.40;1.17;;;18.00;87.60;;;;;;5075042;28;20454;-76
2022/10/27 00:54:15;;;;;;;3.35;0.90;;;17.90;87.60;;;;;;5042544;28;20067;-76
2022/10/27 00:56:42;;;;;;;2.97;1.00;;;18.00;87.60;;;;;;5075183;28;20028;-76
2022/10/27 00:59:07;;;;;;;2.67;0.70;;;17.90;87.60;;;;;;5075169;28;20058;-76
2022/10/27 01:01:33;;;;;;;2.38;0.65;;;17.90;87.60;;;;;;5074940;28;20020;-76
2022/10/27 01:04:00;;;;;;;2.97;0.88;;;18.00;87.60;;;;;;5057867;28;20045;-76
2022/10/27 01:06:25;;;;;;;3.55;0.90;;;18.00;87.70;;;;;;5092995;28;20389;-76
2022/10/27 01:08:51;;;;;;;5.88;1.10;;;18.00;87.60;;;;;;5075006;28;20401;-76
2022/10/27 01:11:17;;;;;;;2.75;0.88;;;17.90;87.60;;;;;;5058434;28;20037;-76
2022/10/27 01:13:42;;;;;;;2.90;0.80;;;18.00;87.60;;;;;;5074823;28;20028;-76
2022/10/27 01:16:14;;;;;;;1.52;0.90;;;18.00;87.60;;;;;;5075012;28;20020;-76
2022/10/27 01:19:23;;;;;;;6.55;0.90;;;17.90;87.60;;;;;;5092665;28;20028;-76
2022/10/27 01:21:56;;;;;;;5.57;1.00;;;18.00;87.70;;;;;;5045446;28;20109;-76
2022/10/27 01:24:41;;;;;;;6.00;1.00;;;17.90;87.60;;;;;;5074804;28;20056;-76
2022/10/27 01:27:29;;;;;;;2.17;0.80;;;18.00;87.60;;;;;;5092800;28;20082;-76
2022/10/27 01:30:14;;;;;;;2.60;0.82;;;18.00;87.60;;;;;;5093162;28;20032;-77
2022/10/27 01:32:50;;;;;;;2.50;0.98;;;18.00;87.60;;;;;;5074368;28;20102;-76
2022/10/27 01:35:42;;;;;;;4.13;0.90;;;17.90;87.60;;;;;;5075816;28;20153;-76
2022/10/27 01:38:23;;;;;;;4.30;1.23;;;17.90;87.60;;;;;;5092542;28;20355;-76
2022/10/27 01:41:01;;;;;;;1.30;0.60;;;17.90;87.60;;;;;;5074708;28;20405;-76
2022/10/27 01:43:27;;;;;;;1.02;0.60;;;17.90;87.50;;;;;;5074420;28;20051;-76
2022/10/27 01:45:53;;;;;;;3.58;0.90;;;17.90;87.50;;;;;;5074679;28;20027;-76
2022/10/27 01:48:19;;;;;;;2.22;0.80;;;17.90;87.50;;;;;;5074357;28;20024;-76
2022/10/27 01:50:45;;;;;;;4.75;0.90;;;17.90;87.50;;;;;;5074364;28;20444;-76
2022/10/27 01:53:10;;;;;;;3.28;0.90;;;17.90;87.50;;;;;;5074483;28;20089;-76
2022/10/27 01:55:55;;;;;;;2.20;0.85;;;17.90;87.50;;;;;;5092335;28;20032;-76
2022/10/27 01:58:42;;;;;;;2.42;1.10;;;17.90;87.50;;;;;;5092314;28;20516;-76
2022/10/27 02:01:18;;;;;;;3.55;0.68;;;18.00;87.60;;;;;;5092542;28;20445;-76
2022/10/27 02:03:52;;;;;;;3.03;0.90;;;18.00;87.70;;;;;;5074317;28;20024;-76
2022/10/27 02:06:18;;;;;;;1.60;0.93;;;17.90;87.50;;;;;;5074551;28;20028;-76
2022/10/27 02:08:49;;;;;;;4.38;1.10;;;17.90;87.50;;;;;;5092288;28;20031;-76
2022/10/27 02:11:14;;;;;;;2.15;0.75;;;17.90;87.60;;;;;;5074365;28;20032;-76
2022/10/27 02:13:42;;;;;;;6.93;1.15;;;18.00;87.70;;;;;;5092277;28;20413;-76
2022/10/27 02:16:13;;;;;;;2.42;1.38;;;18.00;87.60;;;;;;5076766;28;20027;-76
2022/10/27 02:18:41;;;;;;;4.43;0.75;;;18.00;87.60;;;;;;5078162;28;20024;-76
2022/10/27 02:21:08;;;;;;;3.53;0.90;;;18.00;87.60;;;;;;5078186;28;20071;-75
2022/10/27 02:23:34;;;;;;;4.88;1.10;;;18.00;87.60;;;;;;5078043;28;20081;-75
2022/10/27 02:26:22;;;;;;;2.47;0.80;;;18.00;87.60;;;;;;5078228;28;20099;-75
2022/10/27 02:28:51;;;;;;;1.23;0.75;;;17.90;87.60;;;;;;5061095;28;20359;-76
2022/10/27 02:31:16;;;;;;;4.18;0.90;;;18.00;87.70;;;;;;5077923;28;20020;-76
2022/10/27 02:33:42;;;;;;;1.92;0.88;;;18.00;87.60;;;;;;5077872;28;20122;-76
2022/10/27 02:36:08;;;;;;;2.00;0.90;;;17.90;87.60;;;;;;5077881;28;20481;-76
2022/10/27 02:38:34;;;;;;;2.88;0.93;;;17.90;87.60;;;;;;5095742;28;20409;-76
2022/10/27 02:40:59;;;;;;;1.65;0.88;;;18.00;87.60;;;;;;5095892;28;20020;-76
2022/10/27 02:43:25;;;;;;;1.38;0.80;;;18.00;87.60;;;;;;5095812;28;20055;-76
2022/10/27 02:45:50;;;;;;;4.20;1.00;;;17.90;87.60;;;;;;5060810;28;20115;-76
2022/10/27 02:48:16;;;;;;;1.38;0.68;;;18.00;87.60;;;;;;5077691;28;20115;-76
2022/10/27 02:50:42;;;;;;;2.08;0.65;;;18.00;87.60;;;;;;5095587;28;20016;-76
2022/10/27 02:53:07;;;;;;;3.22;1.20;;;17.90;87.60;;;;;;5077768;28;20024;-76
2022/10/27 02:55:33;;;;;;;3.83;0.80;;;18.00;87.60;;;;;;5095533;28;20020;-76
2022/10/27 02:57:58;;;;;;;3.00;1.02;;;17.90;87.60;;;;;;5077425;28;20036;-76
2022/10/27 03:00:24;;;;;;;2.05;0.80;;;17.90;87.60;;;;;;5077111;28;20406;-76
2022/10/27 03:02:50;;;;;;;3.30;1.00;;;17.90;87.70;;;;;;5077538;28;20474;-76
2022/10/27 03:05:15;;;;;;;3.70;1.00;;;18.00;87.60;;;;;;5095572;28;20500;-76
2022/10/27 03:07:42;;;;;;;0.85;0.63;;;18.00;87.70;;;;;;5077273;28;20020;-75
2022/10/27 03:10:08;;;;;;;1.83;0.80;;;17.90;87.70;;;;;;5077079;28;20027;-76
2022/10/27 03:12:34;;;;;;;4.15;0.70;;;17.90;87.70;;;;;;5077354;28;20020;-76
2022/10/27 03:14:59;;;;;;;2.83;1.02;;;18.00;87.70;;;;;;5094963;28;20466;-76
2022/10/27 03:17:25;;;;;;;1.67;0.95;;;18.00;87.70;;;;;;5060172;28;20032;-76
2022/10/27 03:19:51;;;;;;;2.55;0.95;;;18.00;87.80;;;;;;5076978;28;20044;-77
2022/10/27 03:22:16;;;;;;;2.10;0.77;;;17.90;87.70;;;;;;5076803;28;20028;-75
2022/10/27 03:24:42;;;;;;;2.40;0.82;;;17.90;87.80;;;;;;5076947;28;20031;-74
2022/10/27 03:27:07;;;;;;;3.05;0.90;;;17.90;87.90;;;;;;5094808;28;20031;-74
2022/10/27 03:29:33;;;;;;;1.92;0.80;;;18.00;87.90;;;;;;5094638;28;20474;-74
2022/10/27 03:31:59;;;;;;;7.60;1.10;;;18.00;87.90;;;;;;5094985;28;20027;-74
2022/10/27 03:34:24;;;;;;;2.42;0.75;;;18.00;87.90;;;;;;5076782;28;20028;-74
2022/10/27 03:36:50;;;;;;;2.40;1.20;;;17.90;87.80;;;;;;5094718;28;20482;-74
2022/10/27 03:39:16;;;;;;;1.42;0.80;;;18.00;87.90;;;;;;5076780;28;20028;-76
2022/10/27 03:41:41;;;;;;;2.30;1.10;;;17.90;87.80;;;;;;5076579;28;20122;-76
2022/10/27 03:44:07;;;;;;;2.92;0.90;;;17.90;87.80;;;;;;5094480;28;20107;-76
2022/10/27 03:46:32;;;;;;;1.80;0.80;;;18.00;87.90;;;;;;5076478;28;20100;-74
2022/10/27 03:48:58;;;;;;;2.80;0.90;;;18.00;88.00;;;;;;5076715;28;20118;-75
2022/10/27 03:51:24;;;;;;;2.97;1.25;;;18.00;88.00;;;;;;5076487;28;20489;-77
2022/10/27 03:53:49;;;;;;;1.63;1.10;;;18.00;88.00;;;;;;5059839;28;20028;-74
2022/10/27 03:56:15;;;;;;;2.17;0.90;;;18.00;88.10;;;;;;5076363;28;20024;-77
2022/10/27 03:58:40;;;;;;;1.23;0.50;;;18.00;88.10;;;;;;5076033;28;20032;-77
2022/10/27 04:01:06;;;;;;;3.90;0.85;;;18.00;88.20;;;;;;5094443;28;20023;-76
2022/10/27 04:03:32;;;;;;;2.47;0.77;;;18.00;88.20;;;;;;5076020;28;20026;-76
2022/10/27 04:05:58;;;;;;;6.40;1.10;;;18.00;89.30;;;;;;5076267;28;20021;-76
2022/10/27 04:08:23;;;;;;;1.50;0.90;;;18.00;88.30;;;;;;5076235;28;20028;-76
2022/10/27 04:10:49;;;;;;;5.95;1.00;;;18.00;89.30;;;;;;5094112;28;20452;-76
2022/10/27 04:13:15;;;;;;;4.88;0.90;;;18.00;88.30;;;;;;5075913;28;20052;-76
2022/10/27 04:15:40;;;;;;;2.40;0.60;;;18.00;88.30;;;;;;5094093;28;20031;-76
2022/10/27 04:18:06;;;;;;;1.25;0.80;;;18.00;88.40;;;;;;5094129;28;20077;-76
2022/10/27 04:20:32;;;;;;;1.95;0.60;;;18.00;88.30;;;;;;5075796;28;20045;-76
2022/10/27 04:22:57;;;;;;;4.07;1.45;;;18.00;88.40;;;;;;5075549;28;20028;-76
2022/10/27 04:25:23;;;;;;;2.10;0.80;;;18.00;88.30;;;;;;5059157;28;20019;-76
2022/10/27 04:27:49;;;;;;;2.25;0.68;;;18.00;88.30;;;;;;5075495;28;20436;-76
2022/10/27 04:30:15;;;;;;;1.33;0.77;;;18.00;88.40;;;;;;5093772;28;20020;-76
2022/10/27 04:32:41;;;;;;;2.47;1.00;;;18.00;88.30;;;;;;5093551;28;20024;-76
2022/10/27 04:35:07;;;;;;;2.00;0.90;;;18.00;88.30;;;;;;5075472;28;20023;-76
2022/10/27 04:37:33;;;;;;;2.88;0.88;;;18.00;88.40;;;;;;5074761;28;20512;-76
2022/10/27 04:39:59;;;;;;;2.90;0.80;;;18.00;88.40;;;;;;5093486;28;20028;-76
2022/10/27 04:42:24;;;;;;;3.42;0.80;;;18.00;88.40;;;;;;5075363;28;20110;-76
2022/10/27 04:44:50;;;;;;;2.67;0.73;;;18.00;88.40;;;;;;5075453;28;20022;-76
2022/10/27 04:47:15;;;;;;;0.90;0.70;;;18.00;88.30;;;;;;5093493;28;20023;-76
2022/10/27 04:49:41;;;;;;;0.90;0.70;;;18.00;88.40;;;;;;5093508;28;20471;-76
2022/10/27 04:52:07;;;;;;;2.35;1.15;;;18.00;88.40;;;;;;5075422;28;20401;-76
2022/10/27 04:54:32;;;;;;;3.35;1.38;;;18.00;88.40;;;;;;5093345;28;20047;-76
2022/10/27 04:56:58;;;;;;;2.00;0.70;;;18.00;88.40;;;;;;5092913;28;20054;-76
2022/10/27 04:59:24;;;;;;;2.30;0.70;;;18.00;88.50;;;;;;5075273;28;20421;-76
2022/10/27 05:01:49;;;;;;;3.03;0.75;;;18.00;88.40;;;;;;5093174;28;20541;-76
2022/10/27 05:04:15;;;;;;;1.17;0.70;;;18.00;88.30;;;;;;5093181;28;20020;-76
2022/10/27 05:06:40;;;;;;;2.80;0.98;;;18.00;88.40;;;;;;5093068;28;20024;-76
2022/10/27 05:09:06;;;;;;;2.63;0.68;;;18.00;88.40;;;;;;5075011;28;20031;-76
2022/10/27 05:11:32;;;;;;;1.02;0.82;;;18.00;88.50;;;;;;5074606;28;20023;-76
2022/10/27 05:13:57;;;;;;;5.38;1.00;;;18.00;88.00;;;;;;5091502;28;20160;-74
2022/10/27 05:16:23;;;;;;;4.93;1.10;;;18.00;87.90;;;;;;5090538;28;20518;-73
2022/10/27 05:18:49;;;;;;;6.13;0.80;;;18.00;87.90;;;;;;5072134;28;20028;-73
2022/10/27 05:21:14;;;;;;;1.45;0.70;;;18.00;87.70;;;;;;5072148;28;20052;-73
2022/10/27 05:23:40;;;;;;;3.45;1.08;;;18.00;86.90;;;;;;5071812;28;20028;-73
2022/10/27 05:26:06;;;;;;;4.15;1.15;;;18.00;86.60;;;;;;5072368;28;20069;-73
2022/10/27 05:28:31;;;;;;;3.72;0.93;;;17.90;86.30;;;;;;5092895;28;20471;-74
2022/10/27 05:30:58;;;;;;;2.40;1.00;;;17.90;86.20;;;;;;5074710;28;20039;-74
2022/10/27 05:33:24;;;;;;;3.67;1.08;;;17.90;86.10;;;;;;5071577;28;20012;-73
2022/10/27 05:35:49;;;;;;;1.45;1.00;;;17.90;86.10;;;;;;5083769;28;20020;-74
2022/10/27 05:38:15;;;;;;;2.15;0.70;;;17.90;85.90;;;;;;5088300;28;20401;-74
2022/10/27 05:40:41;;;;;;;2.85;1.02;;;17.90;85.90;;;;;;5082205;28;20017;-74
2022/10/27 05:43:07;;;;;;;3.42;1.25;;;17.90;85.80;;;;;;5071512;28;20482;-74
2022/10/27 05:45:33;;;;;;;1.88;0.88;;;17.90;85.80;;;;;;5052977;28;20385;-74
2022/10/27 05:48:00;;;;;;;2.85;1.23;;;17.90;85.90;;;;;;5075076;28;20024;-74
2022/10/27 05:50:27;;;;;;;1.83;0.90;;;17.90;85.80;;;;;;5069476;28;20024;-74
2022/10/27 05:52:52;;;;;;;2.75;0.90;;;17.90;85.80;;;;;;5071127;28;20099;-74
2022/10/27 05:55:18;;;;;;;1.55;1.00;;;17.90;85.80;;;;;;5057208;28;20430;-74
2022/10/27 05:57:55;;;;;;;3.20;1.23;;;17.90;86.00;;;;;;5074439;28;20027;-74
2022/10/27 06:00:21;;;;;;;5.22;1.20;;;17.90;86.00;;;;;;5074337;28;20020;-74
2022/10/27 06:02:47;;;;;;;3.47;1.25;;;17.80;85.90;;;;;;5074221;28;20044;-74
2022/10/27 06:05:12;;;;;;;9.05;1.38;;;17.90;86.00;;;;;;5074298;28;20048;-74
2022/10/27 06:07:38;;;;;;;7.93;1.75;;;17.90;86.00;;;;;;5074046;28;20493;-74
2022/10/27 06:10:04;;;;;;;5.07;1.48;;;17.90;86.00;;;;;;5073935;28;20026;-74
2022/10/27 06:12:29;;;;;;;9.88;1.75;;;17.80;85.90;;;;;;5074368;28;20099;-74
2022/10/27 06:14:55;;;;;;;21.65;3.38;;;17.90;86.00;;;;;;5092093;28;20051;-74
2022/10/27 06:17:21;;;;;;;15.60;3.00;;;17.80;86.00;;;;;;5074437;28;20032;-74
2022/10/27 06:19:46;;;;;;;16.33;2.70;;;17.80;86.00;;;;;;5090590;28;20059;-74
2022/10/27 06:22:12;;;;;;;17.63;3.42;;;17.90;86.10;;;;;;5091952;28;20055;-74
2022/10/27 06:24:37;;;;;;;12.25;2.30;;;17.80;86.00;;;;;;5092016;28;20561;-74
2022/10/27 06:27:03;;;;;;;18.60;2.95;;;17.80;86.00;;;;;;5090998;28;20024;-74
2022/10/27 06:29:29;;;;;;;12.82;2.08;;;17.80;86.00;;;;;;5090953;28;20027;-74
2022/10/27 06:31:54;;;;;;;13.95;3.25;;;17.80;86.10;;;;;;5090947;28;20088;-74
2022/10/27 06:34:21;;;;;;;17.35;3.17;;;17.80;86.10;;;;;;5090901;28;20028;-74
2022/10/27 06:36:46;;;;;;;11.48;2.67;;;17.80;86.10;;;;;;5090793;28;20020;-74
2022/10/27 06:39:12;;;;;;;21.50;3.90;;;17.80;86.10;;;;;;5090568;28;20035;-74
2022/10/27 06:41:37;;;;;;;15.10;3.13;;;17.80;86.10;;;;;;5090782;28;20036;-74
2022/10/27 06:44:03;;;;;;;14.73;3.15;;;17.80;86.10;;;;;;5090818;28;20017;-74
2022/10/27 06:46:29;;;;;;;19.25;3.33;;;17.80;86.20;;;;;;5091014;28;20032;-74
2022/10/27 06:48:54;;;;;;;15.75;3.25;;;17.80;86.10;;;;;;5091858;28;20102;-75
2022/10/27 06:51:20;;;;;;;13.38;3.13;;;17.80;86.10;;;;;;5090505;28;20501;-74
2022/10/27 06:53:46;;;;;;;13.35;2.65;;;17.80;86.20;;;;;;5091732;28;20028;-74
2022/10/27 06:56:11;;;;;;;23.15;3.13;;;17.80;86.30;;;;;;5091922;28;20032;-74
2022/10/27 06:58:38;;;;;;;16.27;3.47;;;17.80;86.10;;;;;;5091886;28;20029;-74
2022/10/27 07:01:05;;;;;;;18.17;3.47;;;17.80;86.20;;;;;;5092637;28;20103;-74
2022/10/27 07:03:33;;;;;;;17.30;3.30;;;17.80;86.10;;;;;;5094238;28;20398;-74
2022/10/27 07:05:59;;;;;;;20.77;3.60;;;17.80;86.10;;;;;;5094277;28;20493;-74
2022/10/27 07:08:25;;;;;;;15.50;3.08;;;17.80;86.10;;;;;;5094265;28;20032;-74
2022/10/27 07:10:51;;;;;;;16.23;3.80;;;17.80;86.10;;;;;;5095275;28;20377;-74
2022/10/27 07:13:16;;;;;;;15.80;3.25;;;17.80;86.10;;;;;;5094105;28;20048;-74
2022/10/27 07:15:42;;;;;;;19.92;4.00;;;17.80;86.10;;;;;;5094053;28;20434;-74
2022/10/27 07:18:09;;;;;;;15.35;3.13;;;17.80;86.10;;;;;;5093923;28;20028;-74
2022/10/27 07:20:37;;;;;;;25.05;4.10;;;17.80;86.10;;;;;;5093663;28;20091;-74
2022/10/27 07:23:03;;;;;;;13.88;3.50;;;17.80;86.10;;;;;;5093587;28;20079;-74
2022/10/27 07:25:29;;;;;;;14.95;3.58;;;17.80;86.00;;;;;;5093856;28;20161;-74
2022/10/27 07:27:55;;;;;;;12.05;3.15;;;17.80;86.00;;;;;;5093767;28;20115;-74
2022/10/27 07:30:31;;;;;;;15.00;3.42;;;17.80;86.10;;;;;;5094979;28;20027;-74
2022/10/27 07:32:57;;;;;;;16.65;3.88;;;17.80;86.10;;;;;;5093581;28;20085;-74
2022/10/27 07:35:22;;;;;;;11.40;3.72;;;17.80;86.00;;;;;;5093718;28;20106;-74
2022/10/27 07:37:48;;;;;;;16.67;3.58;;;17.80;86.00;;;;;;5093594;28;20099;-74
2022/10/27 07:40:15;;;;;;;16.33;4.45;;;17.80;86.00;;;;;;5076347;28;20024;-74
2022/10/27 07:42:45;;;;;;;22.58;4.38;;;17.80;86.00;;;;;;5093548;28;20020;-74
2022/10/27 07:45:12;;;;;;;14.95;3.05;;;17.80;86.00;;;;;;5093546;28;20024;-74
2022/10/27 07:47:41;;;;;;;16.75;3.60;;;17.80;86.00;;;;;;5093512;28;20046;-74
2022/10/27 07:50:07;;;;;;;17.75;3.20;;;17.80;86.00;;;;;;5094272;28;20020;-74
2022/10/27 07:52:36;;;;;;;13.05;4.20;;;17.70;86.00;;;;;;5094703;28;20031;-74
2022/10/27 07:55:02;;;;;;;14.27;3.90;;;17.80;86.00;;;;;;5093146;28;20123;-74
2022/10/27 07:57:27;;;;;;;20.20;4.25;;;17.70;85.90;;;;;;5093197;28;20509;-74
2022/10/27 07:59:53;;;;;;;17.00;3.42;;;17.70;85.90;;;;;;5093184;28;20474;-74
2022/10/27 08:02:19;;;;;;;11.27;3.03;;;17.80;85.90;;;;;;5094136;28;20020;-74
2022/10/27 08:04:44;;;;;;;12.88;3.38;;;17.80;86.00;;;;;;5092756;28;20170;-74
2022/10/27 08:07:10;;;;;;;14.70;3.20;;;17.70;86.00;;;;;;5094283;28;20020;-74
2022/10/27 08:09:35;;;;;;;12.23;3.30;;;17.70;85.90;;;;;;5094222;28;20482;-74
2022/10/27 08:12:01;;;;;;;16.35;3.75;;;17.70;85.90;;;;;;5093312;28;20028;-74
2022/10/27 08:14:27;;;;;;;12.68;3.47;;;17.70;85.90;;;;;;5092170;28;20024;-74
2022/10/27 08:16:52;;;;;;;15.98;4.10;;;17.70;85.80;;;;;;5092749;28;20028;-74
2022/10/27 08:19:18;;;;;;;13.20;3.53;;;17.70;85.90;;;;;;5092234;28;20032;-74
2022/10/27 08:21:43;;;;;;;9.18;2.97;;;17.70;85.90;;;;;;5093746;28;20464;-74
2022/10/27 08:24:09;;;;;;;18.30;3.65;;;17.70;85.90;;;;;;5092594;28;20406;-74
2022/10/27 08:26:35;;;;;;;10.93;3.00;;;17.70;85.80;;;;;;5093823;28;20031;-74
2022/10/27 08:29:00;;;;;;;11.27;2.78;;;17.70;85.80;;;;;;5093732;28;20028;-74
2022/10/27 08:31:26;;;;;;;14.20;3.20;;;17.70;85.80;;;;;;5092556;28;20028;-74
2022/10/27 08:33:52;;;;;;;11.48;2.90;;;17.70;85.80;;;;;;5092388;28;20042;-74
2022/10/27 08:36:18;;;;;;;11.95;3.20;;;17.70;85.80;;;;;;5093671;28;20027;-74
2022/10/27 08:38:44;;;;;;;14.00;2.80;;;17.70;85.80;;;;;;5093636;28;20032;-74
2022/10/27 08:41:26;;;;;;;10.65;3.40;;;17.70;85.80;;;;;;5092392;28;20020;-74
2022/10/27 08:44:19;;;;;;;10.48;3.50;;;17.70;85.70;;;;;;5092513;28;20059;-74
2022/10/27 08:46:52;;;;;;;11.75;2.80;;;17.70;86.70;;;;;;5084396;28;20028;-74
2022/10/27 08:49:38;;;;;;;9.95;2.95;;;17.70;85.70;;;;;;5091943;28;20035;-74
2022/10/27 08:52:34;;;;;;;14.00;2.95;;;17.70;85.70;;;;;;5092075;28;20027;-74
2022/10/27 08:55:17;;;;;;;12.07;2.75;;;17.70;85.70;;;;;;5092180;28;20028;-74
2022/10/27 08:58:05;;;;;;;17.08;3.40;;;17.70;85.70;;;;;;5092115;28;20016;-74
2022/10/27 09:00:46;;;;;;;9.60;3.05;;;17.70;85.70;;;;;;5079295;28;20455;-74
2022/10/27 09:03:35;;;;;;;11.60;3.30;;;17.70;85.70;;;;;;5091731;28;20039;-74
2022/10/27 09:06:07;;;;;;;13.75;3.20;;;17.70;85.70;;;;;;5091821;28;20020;-74
2022/10/27 09:08:42;;;;;;;13.45;3.35;;;17.70;85.70;;;;;;5093185;28;20099;-74
2022/10/27 09:11:32;;;;;;;13.50;3.58;;;17.70;85.70;;;;;;5091696;28;20020;-75
2022/10/27 09:14:15;;;;;;;11.80;2.60;;;17.70;85.60;;;;;;5091781;28;20051;-75
2022/10/27 09:16:42;;;;;;;;;;;17.70;85.70;;;;;;5092115;28;20020;-74
2022/10/27 09:19:14;;;;;;;8.38;2.67;;;17.70;85.60;;;;;;5091681;28;19907;-74
2022/10/27 09:21:40;;;;;;;12.20;3.22;;;17.70;85.70;;;;;;5091269;28;20506;-74
2022/10/27 09:24:17;;;;;;;11.68;2.65;;;17.70;85.70;;;;;;5091172;28;20051;-74
2022/10/27 09:26:43;;;;;;;18.67;3.60;;;17.70;85.70;;;;;;5091681;28;20046;-74
2022/10/27 09:29:14;;;;;;;11.30;3.03;;;17.70;85.60;;;;;;5091492;28;20505;-74
2022/10/27 09:31:55;;;;;;;14.90;3.60;;;17.70;85.60;;;;;;5091550;28;20032;-74
2022/10/27 09:34:27;;;;;;;9.07;3.35;;;17.70;85.60;;;;;;5091387;28;20051;-74
2022/10/27 09:36:53;;;;;;;10.60;3.80;;;17.70;85.60;;;;;;5091570;28;20024;-75
2022/10/27 09:39:20;;;;;;;9.57;3.05;;;17.70;85.50;;;;;;5091452;28;20020;-74
2022/10/27 09:41:45;;;;;;;10.13;3.13;;;17.70;85.50;;;;;;5091555;28;20035;-74
2022/10/27 09:44:23;;;;;;;10.73;3.20;;;17.60;85.50;;;;;;5074261;28;20414;-74
2022/10/27 09:46:53;;;;;;;10.48;2.90;;;17.70;85.50;;;;;;5074262;28;20478;-74
2022/10/27 09:49:19;;;;;;;12.27;3.10;;;17.70;85.50;;;;;;5091121;28;20031;-75
2022/10/27 09:51:48;;;;;;;12.07;3.10;;;17.70;85.50;;;;;;5091229;28;20035;-74
2022/10/27 09:54:31;;;;;;;12.95;3.38;;;17.70;85.60;;;;;;5091301;28;20032;-74
2022/10/27 09:57:17;;;;;;;8.75;2.55;;;17.70;85.50;;;;;;5091409;28;20028;-74
2022/10/27 09:59:43;;;;;;;16.40;2.83;;;17.70;85.60;;;;;;5091281;28;20056;-75
2022/10/27 10:02:22;;;;;;;9.93;2.90;;;17.70;85.60;;;;;;5090865;28;20107;-74
2022/10/27 10:04:48;;;;;;;10.48;2.97;;;17.70;85.60;;;;;;5091150;28;20016;-74
2022/10/27 10:07:34;;;;;;;12.65;3.60;;;17.60;85.60;;;;;;5091307;28;20020;-74
2022/10/27 10:10:30;;;;;;;14.38;3.22;;;17.70;85.60;;;;;;5091255;28;20027;-74
2022/10/27 10:13:02;;;;;;;12.27;3.20;;;17.70;85.70;;;;;;5082467;28;20044;-74
2022/10/27 10:15:28;;;;;;;6.20;2.58;;;17.70;85.70;;;;;;5092083;28;20028;-74
2022/10/27 10:17:57;;;;;;;11.55;3.72;;;17.70;85.70;;;;;;5091193;28;20028;-75
2022/10/27 10:20:37;;;;;;;7.80;2.80;;;17.60;85.60;;;;;;5090823;28;20528;-74
2022/10/27 10:23:05;;;;;;;7.80;2.72;;;17.60;85.70;;;;;;5090727;28;20112;-74
2022/10/27 10:25:32;;;;;;;8.07;2.83;;;17.60;85.70;;;;;;5090958;28;20048;-75
2022/10/27 10:28:04;;;;;;;11.55;2.95;;;17.70;85.70;;;;;;5091027;28;20047;-74
2022/10/27 10:30:35;;;;;;;12.30;3.97;;;17.70;85.80;;;;;;5073813;28;20028;-74
2022/10/27 10:33:03;;;;;;;9.50;3.17;;;17.70;86.80;;;;;;5090969;28;20552;-74
2022/10/27 10:35:41;;;;;;;9.07;2.80;;;17.70;85.80;;;;;;5090849;28;20057;-74
2022/10/27 10:38:28;;;;;;;10.55;2.90;;;17.60;85.70;;;;;;5094647;28;20073;-74
2022/10/27 10:41:14;;;;;;;9.52;3.08;;;17.60;85.70;;;;;;5096020;28;20023;-75
2022/10/27 10:43:40;;;;;;;9.30;3.30;;;17.70;85.80;;;;;;5094605;28;20027;-74
2022/10/27 10:46:14;;;;;;;10.07;3.05;;;17.60;85.80;;;;;;5094601;28;20091;-74
2022/10/27 10:48:49;;;;;;;10.27;2.92;;;17.60;85.70;;;;;;5094448;28;20028;-74
2022/10/27 10:51:26;;;;;;;7.15;2.60;;;17.60;85.70;;;;;;5094569;28;20024;-74
2022/10/27 10:53:56;;;;;;;9.35;2.80;;;17.60;85.70;;;;;;5094657;28;20039;-74
2022/10/27 10:56:26;;;;;;;11.02;2.90;;;17.60;85.80;;;;;;5094379;28;20107;-74
2022/10/27 10:59:12;;;;;;;12.85;2.80;;;17.60;85.90;;;;;;5094082;28;20028;-74
2022/10/27 11:01:41;;;;;;;11.68;2.95;;;17.60;85.80;;;;;;5094399;28;20016;-75
2022/10/27 11:04:10;;;;;;;6.60;2.35;;;17.60;85.80;;;;;;5095560;28;20103;-72
2022/10/27 11:06:35;;;;;;;10.27;3.25;;;17.70;85.90;;;;;;5094423;28;20017;-74
2022/10/27 11:09:02;;;;;;;7.68;2.90;;;17.60;85.80;;;;;;5094294;28;20077;-74
2022/10/27 11:11:33;;;;;;;9.38;2.80;;;17.60;85.80;;;;;;5077064;28;20395;-74
2022/10/27 11:14:05;;;;;;;10.85;2.88;;;17.60;85.80;;;;;;5094021;28;20024;-75
2022/10/27 11:16:31;;;;;;;7.03;2.80;;;17.70;86.00;;;;;;5094259;28;20035;-75
2022/10/27 11:19:04;;;;;;;9.82;2.45;;;17.60;85.80;;;;;;5094028;28;20040;-74
2022/10/27 11:21:39;;;;;;;6.28;2.47;;;17.60;85.90;;;;;;5093482;28;20047;-74
2022/10/27 11:24:13;;;;;;;7.28;2.17;;;17.70;85.90;;;;;;5095093;28;20036;-74
2022/10/27 11:26:59;;;;;;;11.75;3.30;;;17.60;85.80;;;;;;5093829;28;20569;-74
2022/10/27 11:29:36;;;;;;;6.20;2.88;;;17.70;85.80;;;;;;5093562;28;20107;-74
2022/10/27 11:32:08;;;;;;;5.43;2.50;;;17.60;85.80;;;;;;5093849;28;20016;-74
2022/10/27 11:35:08;;;;;;;7.25;2.78;;;17.70;85.90;;;;;;5093879;28;20028;-74
2022/10/27 11:37:58;;;;;;;8.63;2.50;;;17.70;85.80;;;;;;5094828;28;20032;-74
2022/10/27 11:40:34;;;;;;;8.10;2.40;;;17.70;85.80;;;;;;5094683;28;20470;-74
2022/10/27 11:43:04;;;;;;;9.02;2.55;;;17.70;85.90;;;;;;5093458;28;20061;-74
2022/10/27 11:45:41;;;;;;;8.18;2.53;;;17.70;85.90;;;;;;5093452;28;20027;-74
2022/10/27 11:48:14;;;;;;;7.95;2.63;;;17.70;85.90;;;;;;5093275;28;20019;-74
2022/10/27 11:50:46;;;;;;;8.05;2.60;;;17.70;85.80;;;;;;5076487;28;20028;-74
2022/10/27 11:53:12;;;;;;;8.35;2.70;;;17.70;85.80;;;;;;5094507;28;20436;-74
2022/10/27 11:55:59;;;;;;;11.77;3.03;;;17.70;86.00;;;;;;5093167;28;20031;-74
2022/10/27 11:58:34;;;;;;;6.22;2.38;;;17.70;85.90;;;;;;5075947;28;20032;-74
2022/10/27 12:01:14;;;;;;;9.60;2.78;;;17.70;85.90;;;;;;5094444;28;20027;-74
2022/10/27 12:03:51;;;;;;;7.30;2.65;;;17.70;85.90;;;;;;5094436;28;20032;-74
2022/10/27 12:06:29;;;;;;;8.93;2.70;;;17.60;85.90;;;;;;5094299;28;20024;-74
2022/10/27 12:09:13;;;;;;;8.00;2.58;;;17.70;85.90;;;;;;5093065;28;20016;-74
2022/10/27 12:12:11;;;;;;;9.55;2.42;;;17.60;85.80;;;;;;5092605;28;20106;-74
2022/10/27 12:15:17;;;;;;;5.95;2.28;;;17.60;85.80;;;;;;5092989;28;20534;-74
2022/10/27 12:17:50;;;;;;;11.18;2.67;;;17.70;85.80;;;;;;5085251;28;20482;-74
2022/10/27 12:20:16;;;;;;;;;;;17.70;85.90;;;;;;5093045;28;20482;-74
2022/10/27 12:22:59;;;;;;;9.05;2.65;;;17.70;85.80;;;;;;5092417;28;19961;-75
2022/10/27 12:25:25;;;;;;;9.43;3.45;;;17.70;86.00;;;;;;5092373;28;20020;-74
2022/10/27 12:27:53;;;;;;;7.72;2.90;;;17.70;85.90;;;;;;5093949;28;20024;-74
2022/10/27 12:30:20;;;;;;;8.98;2.97;;;17.70;85.90;;;;;;5092501;28;20088;-74
2022/10/27 12:33:05;;;;;;;5.13;2.38;;;17.70;86.00;;;;;;5092677;28;20168;-74
2022/10/27 12:35:53;;;;;;;8.13;2.20;;;17.70;85.90;;;;;;5092526;28;20434;-75
2022/10/27 12:38:26;;;;;;;6.68;1.95;;;17.70;85.80;;;;;;5092236;28;20405;-75
2022/10/27 12:41:07;;;;;;;6.65;2.03;;;17.70;85.90;;;;;;5092193;28;20077;-75
2022/10/27 12:43:55;;;;;;;8.63;2.80;;;17.70;85.90;;;;;;5092232;28;20034;-74
2022/10/27 12:46:40;;;;;;;8.25;2.38;;;17.60;85.80;;;;;;5075463;28;20023;-74
2022/10/27 12:49:17;;;;;;;6.47;2.50;;;17.70;85.90;;;;;;5075267;28;20440;-75
2022/10/27 12:51:58;;;;;;;7.07;2.60;;;17.70;85.90;;;;;;5093550;28;20106;-74
2022/10/27 12:54:37;;;;;;;6.07;2.33;;;17.70;85.90;;;;;;5091972;28;20031;-75
2022/10/27 12:57:16;;;;;;;6.78;2.50;;;17.70;86.00;;;;;;5092145;28;20028;-74
2022/10/27 12:59:52;;;;;;;5.95;2.42;;;17.70;86.00;;;;;;5074483;28;20116;-74